Time;durP1;ratioP1;P1;durP2;ratioP2;P2;SDS_P1;SDS_P2;PMS_P1;PMS_P2;Temp;Humidity;BMP_temperature;BMP_pressure;BME280_temperature;BME280_humidity;BME280_pressure;Samples;Min_cycle;Max_cycle;Signal;HPM_P1;HPM_P2
2021/06/01 00:01:25;;;;;;;2.65;2.47;;;23.80;48.80;;;;;;5029729;28;20034;-39
2021/06/01 00:03:51;;;;;;;2.22;2.13;;;23.80;48.80;;;;;;5031890;28;20154;-38
2021/06/01 00:06:16;;;;;;;2.53;2.28;;;23.80;49.00;;;;;;5029728;28;20037;-38
2021/06/01 00:08:42;;;;;;;2.92;2.72;;;23.70;48.10;;;;;;5027975;28;20041;-44
2021/06/01 00:11:08;;;;;;;2.67;2.47;;;23.80;48.60;;;;;;5028385;28;20025;-39
2021/06/01 00:13:34;;;;;;;3.40;2.75;;;23.80;47.60;;;;;;5029750;28;20044;-38
2021/06/01 00:16:00;;;;;;;2.67;2.47;;;23.70;48.10;;;;;;5031527;28;20365;-38
2021/06/01 00:18:26;;;;;;;2.63;2.53;;;23.70;48.00;;;;;;5027157;28;20037;-38
2021/06/01 00:20:52;;;;;;;2.13;2.03;;;23.70;49.40;;;;;;5029337;28;20056;-37
2021/06/01 00:23:17;;;;;;;3.05;2.85;;;23.60;49.20;;;;;;5010308;28;20045;-40
2021/06/01 00:25:43;;;;;;;2.67;2.47;;;23.60;49.40;;;;;;5029700;28;20033;-40
2021/06/01 00:28:08;;;;;;;3.33;2.75;;;23.60;49.00;;;;;;5030024;28;20419;-37
2021/06/01 00:30:34;;;;;;;2.50;2.20;;;23.50;48.90;;;;;;5030662;28;20021;-42
2021/06/01 00:33:00;;;;;;;2.45;2.35;;;23.60;49.30;;;;;;5008357;28;20038;-40
2021/06/01 00:35:25;;;;;;;2.42;2.25;;;23.60;49.20;;;;;;5003589;28;20400;-39
2021/06/01 00:37:51;;;;;;;2.65;2.53;;;23.60;48.30;;;;;;5029825;28;20013;-39
2021/06/01 00:40:16;;;;;;;3.22;2.30;;;23.60;47.60;;;;;;5029069;28;20037;-39
2021/06/01 00:42:42;;;;;;;2.75;2.55;;;23.80;47.10;;;;;;5031302;28;20034;-41
2021/06/01 00:45:08;;;;;;;2.83;2.45;;;23.70;47.70;;;;;;5029576;28;20032;-38
2021/06/01 00:47:34;;;;;;;3.05;2.67;;;23.70;46.90;;;;;;5027713;28;20037;-38
2021/06/01 00:49:59;;;;;;;2.30;2.20;;;23.80;47.00;;;;;;5044642;28;20071;-38
2021/06/01 00:52:25;;;;;;;2.65;2.45;;;23.80;47.00;;;;;;5029413;28;20519;-39
2021/06/01 00:54:50;;;;;;;2.78;2.58;;;23.70;46.90;;;;;;5031338;28;20075;-40
2021/06/01 00:57:16;;;;;;;3.45;2.60;;;23.80;47.50;;;;;;5032583;28;20033;-37
2021/06/01 00:59:41;;;;;;;2.65;2.38;;;23.70;47.30;;;;;;5032838;28;20037;-39
2021/06/01 01:02:07;;;;;;;2.60;2.40;;;23.70;47.20;;;;;;5031756;28;20029;-40
2021/06/01 01:04:33;;;;;;;2.28;2.10;;;23.70;47.00;;;;;;5032836;28;20571;-40
2021/06/01 01:07:15;;;;;;;2.63;2.40;;;23.70;47.00;;;;;;5016762;28;20049;-38
2021/06/01 01:09:42;;;;;;;2.38;2.17;;;23.70;47.90;;;;;;5034252;28;20030;-38
2021/06/01 01:12:14;;;;;;;2.03;1.92;;;23.70;47.00;;;;;;4997373;28;20056;-41
2021/06/01 01:14:48;;;;;;;2.60;2.50;;;23.70;46.90;;;;;;5032797;28;20029;-39
2021/06/01 01:17:17;;;;;;;2.40;2.30;;;23.70;46.90;;;;;;5015329;28;20033;-36
2021/06/01 01:20:02;;;;;;;2.42;2.22;;;23.60;46.90;;;;;;5014994;28;20091;-34
2021/06/01 01:22:28;;;;;;;2.75;2.55;;;23.60;46.90;;;;;;5032487;28;20089;-37
2021/06/01 01:25:02;;;;;;;2.88;2.10;;;23.60;46.90;;;;;;5033130;28;20025;-40
2021/06/01 01:27:47;;;;;;;2.47;2.28;;;23.60;47.00;;;;;;5017206;28;20045;-38
2021/06/01 01:30:15;;;;;;;2.25;2.15;;;23.60;47.30;;;;;;5030836;28;20424;-41
2021/06/01 01:32:59;;;;;;;2.20;2.10;;;23.60;47.00;;;;;;5011711;28;20030;-39
2021/06/01 01:35:26;;;;;;;2.20;2.10;;;23.60;46.90;;;;;;5035411;28;20029;-39
2021/06/01 01:37:51;;;;;;;2.30;1.90;;;23.60;47.00;;;;;;5015562;28;20504;-38
2021/06/01 01:40:17;;;;;;;2.55;2.33;;;23.60;46.90;;;;;;5013975;28;20103;-39
2021/06/01 01:42:46;;;;;;;2.88;2.67;;;23.60;46.90;;;;;;5032413;28;20163;-36
2021/06/01 01:45:26;;;;;;;2.22;2.00;;;23.50;46.90;;;;;;5010924;28;20030;-38
2021/06/01 01:50:39;;;;;;;2.33;2.13;;;23.60;47.00;;;;;;5032587;28;20037;-39
2021/06/01 01:53:05;;;;;;;2.00;1.90;;;23.50;47.00;;;;;;5014482;28;20029;-38
2021/06/01 01:55:31;;;;;;;2.20;1.92;;;23.50;47.10;;;;;;5014324;28;20160;-40
2021/06/01 01:57:56;;;;;;;2.15;1.85;;;23.50;47.30;;;;;;5016104;28;20022;-39
2021/06/01 02:00:22;;;;;;;1.90;1.80;;;23.50;47.00;;;;;;5010509;28;20057;-39
2021/06/01 02:02:48;;;;;;;1.92;1.83;;;23.50;46.90;;;;;;5010493;28;20033;-39
2021/06/01 02:05:15;;;;;;;6.60;2.45;;;23.50;46.90;;;;;;5012773;28;20030;-39
2021/06/01 02:07:41;;;;;;;2.53;1.92;;;23.50;47.00;;;;;;5011871;28;20072;-42
2021/06/01 02:10:08;;;;;;;1.92;1.83;;;23.50;47.00;;;;;;5015199;28;20061;-37
2021/06/01 02:12:34;;;;;;;2.22;2.13;;;23.50;47.00;;;;;;5032778;28;20044;-42
2021/06/01 02:15:00;;;;;;;2.05;1.95;;;23.50;47.10;;;;;;5031755;28;20116;-42
2021/06/01 02:17:26;;;;;;;2.10;2.00;;;23.50;46.90;;;;;;5031781;28;20025;-39
2021/06/01 02:19:52;;;;;;;2.20;2.10;;;23.50;46.90;;;;;;5032989;28;20493;-39
2021/06/01 02:25:24;;;;;;;2.15;2.05;;;23.50;47.00;;;;;;4970753;28;20051;-39
2021/06/01 02:28:06;;;;;;;3.03;1.95;;;23.50;46.90;;;;;;4972268;28;20046;-38
2021/06/01 02:30:36;;;;;;;2.00;1.90;;;23.50;46.70;;;;;;4967943;28;20545;-38
2021/06/01 02:33:02;;;;;;;2.72;2.53;;;23.50;46.80;;;;;;4952649;28;20035;-38
2021/06/01 02:35:30;;;;;;;2.17;2.08;;;23.40;46.80;;;;;;4955734;28;20131;-41
2021/06/01 02:38:02;;;;;;;1.88;1.73;;;23.50;46.90;;;;;;4971124;28;20062;-38
2021/06/01 02:40:29;;;;;;;2.00;1.90;;;23.50;46.70;;;;;;4955959;28;20033;-39
2021/06/01 02:42:54;;;;;;;2.20;2.00;;;23.50;46.80;;;;;;4971992;28;20551;-40
2021/06/01 02:45:21;;;;;;;2.03;1.92;;;23.50;46.90;;;;;;4971683;28;20031;-38
2021/06/01 02:47:46;;;;;;;1.73;1.63;;;23.50;47.50;;;;;;4964490;28;20061;-39
2021/06/01 02:50:14;;;;;;;1.92;1.83;;;23.40;46.90;;;;;;4952160;28;20114;-39
2021/06/01 02:52:40;;;;;;;4.38;1.90;;;23.50;47.10;;;;;;4971567;28;20054;-37
2021/06/01 02:55:06;;;;;;;1.98;1.70;;;23.50;46.80;;;;;;4971528;28;20043;-40
2021/06/01 02:57:32;;;;;;;2.88;2.00;;;23.50;46.50;;;;;;4970334;28;20018;-40
2021/06/01 02:59:58;;;;;;;1.90;1.80;;;23.60;46.30;;;;;;4961641;28;20551;-38
2021/06/01 03:02:27;;;;;;;2.03;1.90;;;23.60;46.10;;;;;;5012938;28;20108;-36
2021/06/01 03:04:53;;;;;;;1.77;1.67;;;23.50;46.20;;;;;;5030910;28;20076;-39
2021/06/01 03:07:19;;;;;;;2.13;2.03;;;23.60;46.30;;;;;;5030542;28;20030;-39
2021/06/01 03:09:44;;;;;;;1.75;1.65;;;23.60;46.10;;;;;;5032240;28;20026;-40
2021/06/01 03:12:21;;;;;;;2.05;1.75;;;23.60;46.10;;;;;;5030748;28;20040;-39
2021/06/01 03:14:47;;;;;;;1.98;1.88;;;23.70;45.80;;;;;;5030803;28;20034;-39
2021/06/01 03:17:13;;;;;;;3.47;2.17;;;23.70;45.90;;;;;;5030640;28;20450;-41
2021/06/01 03:19:38;;;;;;;2.20;2.10;;;23.60;46.20;;;;;;5029610;28;20558;-36
2021/06/01 03:22:04;;;;;;;2.25;2.10;;;23.60;46.20;;;;;;5031635;28;20028;-39
2021/06/01 03:24:30;;;;;;;2.00;1.90;;;23.60;46.10;;;;;;5029746;28;20108;-39
2021/06/01 03:26:55;;;;;;;1.73;1.63;;;23.60;46.20;;;;;;5030493;28;20499;-38
2021/06/01 03:29:21;;;;;;;2.08;1.88;;;23.60;46.20;;;;;;5029904;28;20025;-39
2021/06/01 03:31:46;;;;;;;2.03;1.92;;;23.50;46.30;;;;;;5030267;28;20411;-39
2021/06/01 03:34:12;;;;;;;3.17;1.70;;;23.50;46.70;;;;;;5013082;28;20087;-41
2021/06/01 03:36:37;;;;;;;1.80;1.70;;;23.50;46.40;;;;;;5031473;28;20021;-40
2021/06/01 03:39:07;;;;;;;2.33;2.20;;;23.50;46.20;;;;;;5029467;28;20074;-37
2021/06/01 03:41:33;;;;;;;2.00;1.90;;;23.50;46.20;;;;;;5030218;28;20523;-39
2021/06/01 03:43:58;;;;;;;2.00;1.90;;;23.60;46.00;;;;;;5030395;28;20022;-38
2021/06/01 03:46:24;;;;;;;1.90;1.70;;;23.60;46.10;;;;;;5030014;28;20055;-38
2021/06/01 03:48:49;;;;;;;1.90;1.80;;;23.60;45.90;;;;;;5031787;28;20033;-42
2021/06/01 03:51:15;;;;;;;1.77;1.67;;;23.60;46.10;;;;;;5029990;28;20037;-41
2021/06/01 03:53:40;;;;;;;1.80;1.70;;;23.60;46.00;;;;;;5030040;28;20041;-39
2021/06/01 03:56:06;;;;;;;1.58;1.48;;;23.50;46.30;;;;;;5030045;28;20484;-40
2021/06/01 03:58:32;;;;;;;2.30;1.95;;;23.50;46.40;;;;;;5029762;28;20148;-38
2021/06/01 04:00:58;;;;;;;1.92;1.80;;;23.50;46.30;;;;;;5031569;28;20048;-38
2021/06/01 04:03:23;;;;;;;2.35;1.95;;;23.60;46.30;;;;;;5028408;28;20068;-36
2021/06/01 04:05:49;;;;;;;1.65;1.55;;;23.60;46.00;;;;;;5028336;28;20547;-39
2021/06/01 04:08:14;;;;;;;1.80;1.70;;;23.60;46.20;;;;;;5029453;28;20113;-37
2021/06/01 04:10:40;;;;;;;1.70;1.60;;;23.50;46.00;;;;;;5029744;28;20022;-35
2021/06/01 04:13:06;;;;;;;1.88;1.70;;;23.50;46.00;;;;;;5013293;28;20080;-38
2021/06/01 04:15:31;;;;;;;1.75;1.65;;;23.50;46.10;;;;;;5030420;28;20018;-41
2021/06/01 04:17:57;;;;;;;1.92;1.70;;;23.60;45.90;;;;;;5028512;28;20507;-37
2021/06/01 04:20:24;;;;;;;1.80;1.70;;;23.60;46.10;;;;;;5029254;28;20033;-39
2021/06/01 04:22:49;;;;;;;1.90;1.80;;;23.50;46.30;;;;;;5029570;28;20025;-33
2021/06/01 04:25:15;;;;;;;2.10;1.88;;;23.50;46.10;;;;;;5029896;28;20120;-40
2021/06/01 04:27:41;;;;;;;1.63;1.52;;;23.50;45.90;;;;;;5031574;28;20387;-40
2021/06/01 04:30:07;;;;;;;1.70;1.60;;;23.50;46.10;;;;;;5029063;28;20490;-41
2021/06/01 04:32:33;;;;;;;2.13;1.63;;;23.40;46.10;;;;;;5033321;28;20025;-38
2021/06/01 04:34:58;;;;;;;1.50;1.40;;;23.40;46.30;;;;;;5033450;28;20112;-39
2021/06/01 04:37:24;;;;;;;2.53;1.83;;;23.40;46.00;;;;;;5033689;28;20033;-37
2021/06/01 04:39:49;;;;;;;1.92;1.80;;;23.40;46.10;;;;;;5039641;28;20053;-44
2021/06/01 04:42:15;;;;;;;1.80;1.70;;;23.40;46.10;;;;;;5033223;28;20033;-42
2021/06/01 04:44:41;;;;;;;1.60;1.50;;;23.40;46.10;;;;;;5032507;28;20036;-42
2021/06/01 04:47:07;;;;;;;1.63;1.52;;;23.40;46.70;;;;;;5047694;28;20481;-40
2021/06/01 04:49:32;;;;;;;3.20;1.40;;;23.30;46.80;;;;;;5033026;28;20036;-40
2021/06/01 04:51:58;;;;;;;2.00;1.55;;;23.20;46.60;;;;;;5035544;28;20021;-40
2021/06/01 04:54:23;;;;;;;1.65;1.55;;;23.00;46.80;;;;;;5044419;28;20025;-38
2021/06/01 04:56:49;;;;;;;3.72;1.67;;;23.00;47.00;;;;;;5036670;28;20029;-39
2021/06/01 04:59:14;;;;;;;1.98;1.70;;;22.90;46.60;;;;;;5032920;28;20053;-42
2021/06/01 05:01:40;;;;;;;1.63;1.52;;;22.90;46.60;;;;;;5016322;28;20048;-40
2021/06/01 05:04:06;;;;;;;1.83;1.73;;;22.90;47.00;;;;;;5026168;28;20029;-40
2021/06/01 05:06:32;;;;;;;1.92;1.83;;;23.00;47.00;;;;;;5031269;28;20385;-39
2021/06/01 05:08:58;;;;;;;1.60;1.50;;;23.00;48.40;;;;;;5032839;28;20503;-38
2021/06/01 05:11:23;;;;;;;1.90;1.80;;;23.00;47.60;;;;;;5032600;28;20036;-40
2021/06/01 05:13:49;;;;;;;1.70;1.60;;;23.00;47.10;;;;;;5014692;28;20037;-40
2021/06/01 05:16:14;;;;;;;4.22;1.60;;;23.00;46.60;;;;;;5033988;28;20100;-38
2021/06/01 05:18:41;;;;;;;1.83;1.73;;;22.90;46.70;;;;;;5034572;28;20041;-41
2021/06/01 05:21:06;;;;;;;2.20;2.00;;;22.90;46.70;;;;;;5030892;28;20076;-40
2021/06/01 05:23:33;;;;;;;11.20;1.70;;;22.90;46.90;;;;;;5030919;28;20042;-38
2021/06/01 05:25:58;;;;;;;3.55;2.25;;;22.90;47.00;;;;;;5031225;28;20028;-40
2021/06/01 05:28:24;;;;;;;3.83;2.20;;;22.80;47.10;;;;;;5014441;28;20033;-41
2021/06/01 05:31:06;;;;;;;6.13;1.90;;;22.80;47.10;;;;;;5033850;28;20029;-39
2021/06/01 05:33:34;;;;;;;2.38;2.10;;;22.70;47.30;;;;;;5033488;28;20033;-40
2021/06/01 05:36:00;;;;;;;2.53;2.33;;;22.60;47.80;;;;;;5030070;28;20026;-38
2021/06/01 05:38:27;;;;;;;5.45;2.10;;;22.60;48.00;;;;;;5031312;28;20025;-40
2021/06/01 05:40:53;;;;;;;2.90;1.77;;;22.60;48.90;;;;;;5031779;28;20025;-40
2021/06/01 05:43:19;;;;;;;1.90;1.80;;;22.50;49.00;;;;;;5024964;28;20034;-39
2021/06/01 05:45:45;;;;;;;2.75;2.10;;;22.50;48.50;;;;;;5033303;28;20391;-40
2021/06/01 05:48:10;;;;;;;6.07;1.77;;;22.40;48.40;;;;;;5030808;28;20447;-41
2021/06/01 05:50:36;;;;;;;2.10;2.00;;;22.30;48.50;;;;;;5031486;28;20021;-39
2021/06/01 05:53:03;;;;;;;2.30;2.10;;;22.20;48.40;;;;;;5031817;28;20025;-39
2021/06/01 05:55:29;;;;;;;2.38;2.05;;;22.30;48.40;;;;;;5013882;28;20014;-42
2021/06/01 05:57:54;;;;;;;1.95;1.85;;;22.30;48.50;;;;;;5033276;28;20056;-40
2021/06/01 06:00:21;;;;;;;2.50;2.30;;;22.10;48.70;;;;;;5029329;28;20041;-40
2021/06/01 06:02:46;;;;;;;2.10;1.90;;;22.20;48.80;;;;;;5008965;28;20038;-40
2021/06/01 06:05:12;;;;;;;2.17;2.00;;;22.10;49.30;;;;;;5021419;28;20511;-40
2021/06/01 06:07:39;;;;;;;2.00;1.85;;;22.20;48.80;;;;;;5031029;28;20049;-39
2021/06/01 06:10:05;;;;;;;2.20;2.00;;;22.10;48.80;;;;;;5032280;28;20025;-41
2021/06/01 06:12:31;;;;;;;5.53;1.83;;;21.90;49.30;;;;;;5031665;28;20033;-40
2021/06/01 06:14:56;;;;;;;3.47;1.77;;;21.90;49.50;;;;;;5026303;28;20029;-41
2021/06/01 06:17:30;;;;;;;4.18;1.98;;;21.90;49.50;;;;;;5017521;28;20412;-42
2021/06/01 06:20:00;;;;;;;2.30;2.03;;;21.70;49.90;;;;;;4997479;28;20041;-47
2021/06/01 06:22:26;;;;;;;2.45;1.70;;;21.70;49.70;;;;;;5013625;28;20037;-48
2021/06/01 06:24:52;;;;;;;2.15;1.92;;;21.60;50.20;;;;;;4998826;28;20056;-42
2021/06/01 06:27:18;;;;;;;3.10;1.70;;;21.50;50.60;;;;;;5017092;28;20057;-41
2021/06/01 06:29:43;;;;;;;2.08;1.88;;;21.50;50.60;;;;;;5022406;28;20033;-39
2021/06/01 06:32:09;;;;;;;2.55;1.77;;;21.50;50.70;;;;;;5029567;28;20087;-38
2021/06/01 06:34:35;;;;;;;1.85;1.63;;;21.50;50.60;;;;;;5030628;28;20030;-41
2021/06/01 06:37:00;;;;;;;1.75;1.50;;;21.50;50.60;;;;;;5032213;28;20029;-37
2021/06/01 06:39:26;;;;;;;2.10;1.90;;;21.50;50.80;;;;;;5028931;28;20026;-40
2021/06/01 06:41:52;;;;;;;1.63;1.52;;;21.50;50.90;;;;;;5028954;28;20523;-40
2021/06/01 06:44:19;;;;;;;2.10;2.00;;;21.50;51.10;;;;;;5030137;28;20123;-42
2021/06/01 06:46:52;;;;;;;2.75;1.90;;;21.50;50.90;;;;;;5029216;28;20057;-35
2021/06/01 06:49:18;;;;;;;2.13;1.88;;;21.50;50.70;;;;;;5029154;28;20033;-40
2021/06/01 06:51:43;;;;;;;5.20;2.00;;;21.50;50.80;;;;;;5028724;28;20104;-42
2021/06/01 06:54:09;;;;;;;2.20;1.75;;;21.50;50.70;;;;;;5022372;28;20053;-43
2021/06/01 06:56:34;;;;;;;2.25;1.67;;;21.60;50.80;;;;;;5011094;28;20033;-44
2021/06/01 06:59:00;;;;;;;2.60;1.88;;;21.60;50.50;;;;;;5027262;28;20026;-41
2021/06/01 07:01:27;;;;;;;3.40;2.00;;;21.70;50.20;;;;;;5024346;28;20420;-42
2021/06/01 07:03:53;;;;;;;2.15;1.85;;;21.60;50.60;;;;;;5026418;28;20025;-41
2021/06/01 07:06:20;;;;;;;1.80;1.70;;;21.80;50.70;;;;;;5025316;28;20034;-43
2021/06/01 07:08:47;;;;;;;2.83;2.20;;;21.80;50.60;;;;;;5026374;28;20049;-42
2021/06/01 07:11:12;;;;;;;2.85;2.00;;;21.90;50.10;;;;;;5028009;28;20025;-41
2021/06/01 07:13:44;;;;;;;2.63;1.65;;;21.90;50.10;;;;;;5027603;28;20040;-41
2021/06/01 07:16:10;;;;;;;3.72;1.83;;;21.90;50.20;;;;;;5030687;28;20104;-42
2021/06/01 07:18:38;;;;;;;2.90;1.75;;;21.90;50.30;;;;;;5031085;28;20033;-43
2021/06/01 07:21:06;;;;;;;2.20;1.95;;;22.00;50.40;;;;;;5027364;28;20532;-43
2021/06/01 07:23:31;;;;;;;1.80;1.70;;;22.10;50.50;;;;;;5029648;28;20029;-42
2021/06/01 07:25:57;;;;;;;2.00;1.90;;;22.10;50.60;;;;;;5028018;28;20109;-42
2021/06/01 07:28:22;;;;;;;2.10;1.90;;;22.30;50.20;;;;;;5026766;28;20048;-36
2021/06/01 07:30:48;;;;;;;2.15;1.95;;;22.30;50.10;;;;;;5030200;28;20021;-42
2021/06/01 07:33:14;;;;;;;3.90;1.92;;;22.30;50.50;;;;;;5029151;28;20056;-42
2021/06/01 07:35:40;;;;;;;3.03;1.63;;;22.30;50.40;;;;;;5030139;28;20120;-41
2021/06/01 07:38:05;;;;;;;3.05;1.70;;;22.40;50.30;;;;;;5029034;28;20091;-40
2021/06/01 07:40:31;;;;;;;2.75;1.85;;;22.50;50.30;;;;;;5029284;28;20025;-40
2021/06/01 07:42:59;;;;;;;2.25;1.70;;;22.60;50.10;;;;;;5013822;28;20120;-41
2021/06/01 07:45:25;;;;;;;3.58;2.10;;;22.60;50.50;;;;;;5028371;28;20021;-39
2021/06/01 07:47:51;;;;;;;5.05;1.70;;;22.60;50.80;;;;;;5028296;28;20132;-40
2021/06/01 07:50:16;;;;;;;4.10;1.75;;;22.60;51.00;;;;;;5028018;28;20096;-40
2021/06/01 07:52:42;;;;;;;3.10;1.60;;;22.70;50.90;;;;;;5028496;28;20493;-41
2021/06/01 07:55:08;;;;;;;1.75;1.55;;;22.70;50.80;;;;;;5030395;28;20068;-42
2021/06/01 07:57:33;;;;;;;3.85;1.80;;;22.80;50.70;;;;;;5028437;28;20453;-43
2021/06/01 07:59:59;;;;;;;1.85;1.75;;;22.80;50.80;;;;;;5028713;28;20041;-44
2021/06/01 08:02:24;;;;;;;5.47;1.67;;;22.80;50.80;;;;;;5029404;28;20060;-43
2021/06/01 08:04:53;;;;;;;1.90;1.70;;;22.70;50.50;;;;;;5028253;28;20060;-42
2021/06/01 08:07:20;;;;;;;2.53;1.77;;;22.80;50.80;;;;;;5029612;28;20598;-43
2021/06/01 08:09:45;;;;;;;1.90;1.80;;;22.80;50.60;;;;;;5029987;28;20033;-44
2021/06/01 08:12:11;;;;;;;2.45;1.95;;;22.90;50.30;;;;;;5028071;28;20038;-43
2021/06/01 08:14:37;;;;;;;4.30;1.60;;;23.00;50.20;;;;;;5028331;28;20034;-43
2021/06/01 08:17:03;;;;;;;4.90;2.00;;;23.00;50.20;;;;;;5027175;28;20486;-44
2021/06/01 08:19:31;;;;;;;2.90;2.00;;;23.00;50.30;;;;;;5028255;28;20503;-43
2021/06/01 08:22:01;;;;;;;1.98;1.85;;;23.00;50.40;;;;;;5031767;28;20029;-44
2021/06/01 08:24:27;;;;;;;1.77;1.67;;;22.90;50.80;;;;;;5040212;28;20197;-45
2021/06/01 08:26:53;;;;;;;2.00;1.77;;;22.90;50.90;;;;;;5030157;28;20121;-43
2021/06/01 08:29:18;;;;;;;1.73;1.63;;;22.90;51.00;;;;;;5029498;28;20021;-45
2021/06/01 08:31:44;;;;;;;7.25;1.80;;;22.80;51.40;;;;;;5028018;28;20499;-46
2021/06/01 08:34:10;;;;;;;1.65;1.55;;;22.90;51.10;;;;;;5029804;28;20036;-46
2021/06/01 08:36:36;;;;;;;2.10;1.88;;;22.90;51.20;;;;;;5029130;28;20021;-44
2021/06/01 08:39:02;;;;;;;1.65;1.55;;;22.80;51.30;;;;;;5027609;28;20026;-43
2021/06/01 08:41:28;;;;;;;3.67;1.90;;;22.80;51.00;;;;;;5027669;28;20415;-43
2021/06/01 08:43:54;;;;;;;1.55;1.45;;;22.90;51.10;;;;;;5027970;28;20021;-45
2021/06/01 08:46:23;;;;;;;2.03;1.70;;;22.90;51.00;;;;;;5029493;28;20079;-44
2021/06/01 08:48:50;;;;;;;2.13;1.83;;;23.00;51.10;;;;;;5029909;28;20149;-40
2021/06/01 08:51:20;;;;;;;3.03;1.63;;;23.00;50.80;;;;;;5010869;28;20013;-42
2021/06/01 08:53:46;;;;;;;2.08;1.90;;;23.10;51.00;;;;;;5027463;28;20112;-46
2021/06/01 08:56:12;;;;;;;2.83;1.70;;;23.10;50.90;;;;;;5027862;28;20509;-46
2021/06/01 08:58:37;;;;;;;2.85;1.70;;;23.30;50.50;;;;;;5027730;28;20037;-45
2021/06/01 09:01:03;;;;;;;3.45;1.80;;;23.40;50.30;;;;;;5012610;28;20045;-44
2021/06/01 09:03:29;;;;;;;2.35;1.90;;;23.40;49.90;;;;;;5028262;28;20041;-42
2021/06/01 09:06:16;;;;;;;2.95;1.75;;;23.40;49.90;;;;;;5027573;28;20447;-40
2021/06/01 09:09:40;;;;;;;1.60;1.38;;;23.40;50.20;;;;;;5026474;28;20116;-40
2021/06/01 09:12:02;;;;;;;1.80;1.70;;;23.50;50.20;;;;;;5021174;28;20030;-39
2021/06/01 09:22:37;;;;;;;1.80;1.70;;;23.60;50.20;;;;;;5032469;28;20033;-41
2021/06/01 09:25:03;;;;;;;1.77;1.67;;;23.60;50.10;;;;;;5014131;28;20021;-41
2021/06/01 09:27:30;;;;;;;1.80;1.70;;;23.70;49.80;;;;;;5033141;28;20045;-43
2021/06/01 09:29:56;;;;;;;1.90;1.60;;;23.70;50.00;;;;;;5031271;28;20041;-42
2021/06/01 09:32:23;;;;;;;1.67;1.58;;;23.70;50.30;;;;;;5030154;28;20033;-42
2021/06/01 09:34:54;;;;;;;1.75;1.35;;;23.80;50.10;;;;;;5030757;28;20018;-42
2021/06/01 09:37:25;;;;;;;1.90;1.63;;;23.80;50.10;;;;;;5031483;28;20530;-42
2021/06/01 09:40:14;;;;;;;1.60;1.50;;;23.90;50.00;;;;;;5033179;28;20041;-41
2021/06/01 09:42:42;;;;;;;1.40;1.30;;;23.90;50.30;;;;;;5034798;28;20159;-42
2021/06/01 09:45:12;;;;;;;1.90;1.60;;;23.90;50.60;;;;;;5032779;28;20034;-42
2021/06/01 09:47:41;;;;;;;5.70;1.70;;;23.90;51.00;;;;;;5030793;28;20063;-43
2021/06/01 09:50:11;;;;;;;1.98;1.88;;;23.90;50.80;;;;;;5030512;28;20025;-40
2021/06/01 09:52:47;;;;;;;1.92;1.60;;;23.90;50.40;;;;;;5030581;28;20026;-43
2021/06/01 09:55:23;;;;;;;6.25;2.00;;;24.00;50.60;;;;;;5032946;28;20021;-42
2021/06/01 09:57:48;;;;;;;1.63;1.50;;;24.00;50.60;;;;;;5032881;28;20070;-43
2021/06/01 10:00:22;;;;;;;2.20;1.77;;;23.90;50.50;;;;;;5008791;28;20174;-46
2021/06/01 10:02:51;;;;;;;1.95;1.70;;;24.00;50.70;;;;;;5019612;28;20732;-44
2021/06/01 10:05:24;;;;;;;1.80;1.65;;;24.00;50.70;;;;;;5019726;28;20042;-44
2021/06/01 10:07:51;;;;;;;1.65;1.55;;;24.00;50.70;;;;;;5019785;28;20060;-41
2021/06/01 10:10:27;;;;;;;1.85;1.50;;;24.10;50.40;;;;;;5019030;28;20029;-46
2021/06/01 10:12:57;;;;;;;1.92;1.70;;;24.20;50.30;;;;;;5018002;28;20025;-45
2021/06/01 10:15:25;;;;;;;1.98;1.60;;;24.30;50.20;;;;;;5019440;28;20464;-44
2021/06/01 10:17:51;;;;;;;1.30;1.20;;;24.20;50.20;;;;;;5019743;28;20060;-42
2021/06/01 10:20:18;;;;;;;1.75;1.65;;;24.20;50.40;;;;;;5020058;28;20034;-44
2021/06/01 10:22:44;;;;;;;1.60;1.50;;;24.20;50.40;;;;;;5019529;28;20033;-45
2021/06/01 10:25:10;;;;;;;1.70;1.55;;;24.20;50.40;;;;;;5001455;28;20036;-42
2021/06/01 10:27:36;;;;;;;1.80;1.48;;;24.20;50.30;;;;;;5020163;28;20041;-42
2021/06/01 10:30:02;;;;;;;1.85;1.75;;;24.30;50.10;;;;;;5018493;28;20586;-43
2021/06/01 10:32:28;;;;;;;2.63;1.60;;;24.30;50.50;;;;;;5019088;28;20033;-41
2021/06/01 10:34:54;;;;;;;2.10;1.90;;;24.30;50.60;;;;;;5000330;28;20419;-49
2021/06/01 10:49:59;;;;;;;1.40;1.40;;;24.60;49.90;;;;;;5020349;28;20168;-44
2021/06/01 10:52:01;;;;;;;1.67;1.50;;;24.60;49.80;;;;;;5019525;28;20037;-37
2021/06/01 10:54:50;;;;;;;1.75;1.45;;;24.60;49.90;;;;;;4669675;28;10000324;-40
2021/06/01 10:57:16;;;;;;;1.73;1.60;;;24.60;49.70;;;;;;5017981;28;20515;-44
2021/06/01 11:02:17;;;;;;;1.50;1.40;;;24.60;49.70;;;;;;5017295;28;20107;-38
2021/06/01 11:05:02;;;;;;;2.78;1.40;;;24.60;49.70;;;;;;5016693;28;20029;-45
2021/06/01 11:07:40;;;;;;;1.60;1.50;;;24.60;49.90;;;;;;5016714;28;20049;-41
2021/06/01 11:10:06;;;;;;;1.85;1.73;;;24.60;49.90;;;;;;5015730;28;20034;-42
2021/06/01 11:12:39;;;;;;;1.40;1.30;;;24.70;50.00;;;;;;4998273;28;20048;-34
2021/06/01 11:15:20;;;;;;;1.83;1.67;;;24.70;49.70;;;;;;5017178;28;20033;-37
2021/06/01 11:17:45;;;;;;;1.70;1.60;;;24.70;49.70;;;;;;5016526;28;20111;-45
2021/06/01 11:20:27;;;;;;;1.23;1.23;;;24.70;49.80;;;;;;5016293;28;20026;-45
2021/06/01 11:23:22;;;;;;;1.73;1.63;;;24.80;49.80;;;;;;5016055;28;20033;-48
2021/06/01 11:33:51;;;;;;;1.85;1.60;;;24.80;50.00;;;;;;5016949;28;19959;-46
2021/06/01 11:36:19;;;;;;;1.52;1.42;;;24.90;50.10;;;;;;5018249;28;20041;-43
2021/06/01 11:38:57;;;;;;;1.27;1.20;;;24.90;49.70;;;;;;5018531;28;20759;-43
2021/06/01 11:43:56;;;;;;;1.60;1.50;;;24.90;50.00;;;;;;5001133;28;20037;-37
2021/06/01 11:51:25;;;;;;;1.77;1.50;;;25.00;50.10;;;;;;5018681;28;20037;-43
2021/06/01 11:53:57;;;;;;;1.67;1.58;;;24.90;50.00;;;;;;5017887;28;20042;-42
2021/06/01 12:18:44;;;;;;;1.40;1.30;;;24.90;50.80;;;;;;4986750;28;20228;-47
2021/06/01 12:21:12;;;;;;;1.63;1.52;;;24.90;51.10;;;;;;4980723;28;20073;-43
2021/06/01 12:23:47;;;;;;;1.50;1.40;;;24.90;50.80;;;;;;4983339;28;20076;-43
2021/06/01 12:31:48;;;;;;;1.63;1.20;;;25.00;50.60;;;;;;4984607;28;20069;-45
2021/06/01 12:34:18;;;;;;;1.50;1.40;;;25.10;50.40;;;;;;4983541;28;20161;-43
2021/06/01 12:42:20;;;;;;;;;;;25.00;50.70;;;;;;4982269;28;20044;-47
2021/06/01 12:44:47;;;;;;;1.30;1.20;;;25.20;50.60;;;;;;4987994;28;20284;-39
2021/06/01 13:05:11;;;;;;;1.15;1.13;;;25.10;50.40;;;;;;4997815;28;20050;-44
2021/06/01 13:20:21;;;;;;;1.42;1.30;;;24.90;51.00;;;;;;5019980;28;20045;-45
2021/06/01 13:31:25;;;;;;;1.52;1.42;;;25.10;50.70;;;;;;5017326;28;20044;-43
2021/06/01 13:36:35;;;;;;;1.38;1.30;;;25.10;50.60;;;;;;5018905;28;20045;-42
2021/06/01 13:39:11;;;;;;;1.15;1.15;;;25.20;50.60;;;;;;5018629;28;20043;-45
2021/06/01 13:47:09;;;;;;;1.60;1.50;;;25.20;51.20;;;;;;5018563;28;20041;-40
2021/06/01 13:49:41;;;;;;;1.40;1.40;;;25.20;50.50;;;;;;5019099;28;20049;-40
2021/06/01 14:21:48;;;;;;;1.20;1.10;;;25.20;50.70;;;;;;5018405;28;20076;-47
2021/06/01 15:50:14;;;;;;;;;;;25.70;51.10;;;;;;4956387;28;20049;-45
2021/06/01 16:12:27;;;;;;;3.72;1.50;;;25.80;51.30;;;;;;4956074;28;20157;-42
2021/06/01 16:22:53;;;;;;;1.50;1.40;;;25.80;51.70;;;;;;5002264;28;20180;-42
2021/06/01 16:41:37;;;;;;;2.30;1.35;;;25.80;51.60;;;;;;5021244;28;19987;-43
2021/06/01 17:06:08;;;;;;;3.22;1.70;;;25.90;52.00;;;;;;5021145;28;20044;-43
2021/06/01 17:11:19;;;;;;;;;;;25.90;52.20;;;;;;5021451;28;20087;-45
2021/06/01 17:13:52;;;;;;;3.75;1.55;;;25.90;52.90;;;;;;5002609;28;19928;-44
2021/06/01 17:16:55;;;;;;;1.60;1.50;;;25.90;52.30;;;;;;5021020;28;20037;-43
2021/06/01 17:35:57;;;;;;;1.98;1.30;;;25.80;52.80;;;;;;4958685;28;20054;-43
2021/06/01 17:38:24;;;;;;;3.38;1.70;;;25.90;52.60;;;;;;4956740;28;20771;-42
2021/06/01 17:40:54;;;;;;;1.15;1.15;;;26.00;52.70;;;;;;4958815;28;20031;-43
2021/06/01 17:43:21;;;;;;;2.58;1.70;;;26.00;53.80;;;;;;4957589;28;20485;-43
2021/06/01 17:45:46;;;;;;;2.33;1.27;;;26.00;52.50;;;;;;4614757;28;10000555;-42
2021/06/01 17:48:31;;;;;;;1.70;1.70;;;26.00;52.60;;;;;;4956345;28;20628;-42
2021/06/01 17:50:56;;;;;;;1.60;1.50;;;26.00;53.00;;;;;;4955687;28;20059;-46
2021/06/01 17:53:23;;;;;;;1.70;1.60;;;26.00;53.10;;;;;;4955855;28;20591;-43
2021/06/01 17:55:51;;;;;;;4.38;1.60;;;26.00;53.10;;;;;;4956454;28;20039;-39
2021/06/01 17:58:16;;;;;;;1.75;1.63;;;26.00;53.40;;;;;;4954961;28;20069;-45
2021/06/01 18:00:42;;;;;;;1.67;1.58;;;26.00;53.40;;;;;;4956338;28;20062;-43
2021/06/01 18:03:12;;;;;;;1.55;1.45;;;26.00;53.60;;;;;;4955446;28;20540;-47
2021/06/01 18:05:41;;;;;;;2.67;1.80;;;26.10;53.50;;;;;;4955542;28;20121;-40
2021/06/01 18:08:17;;;;;;;1.45;1.42;;;26.10;53.40;;;;;;4955018;28;20039;-43
2021/06/01 18:40:53;;;;;;;1.60;1.48;;;26.10;53.50;;;;;;5016784;28;20492;-42
2021/06/01 18:52:24;;;;;;;1.38;1.27;;;26.00;53.60;;;;;;5017469;28;20067;-39
2021/06/01 19:24:45;;;;;;;1.23;1.23;;;26.00;53.40;;;;;;4936892;28;20328;-42
2021/06/01 19:52:07;;;;;;;1.55;1.52;;;26.00;53.80;;;;;;5016283;28;20099;-44